createdAt,value
2018-06-14T00:02:26.298Z,5.87
2018-06-14T00:04:55.145Z,6.43
2018-06-14T00:07:23.717Z,5.40
2018-06-14T00:09:52.433Z,5.73
2018-06-14T00:12:20.944Z,4.60
2018-06-14T00:14:49.562Z,5.97
2018-06-14T00:17:18.160Z,5.60
2018-06-14T00:19:46.634Z,4.80
2018-06-14T00:22:15.180Z,5.47
2018-06-14T00:24:43.908Z,5.67
2018-06-14T00:27:12.787Z,4.07
2018-06-14T00:29:41.243Z,4.17
2018-06-14T00:32:09.719Z,7.90
2018-06-14T00:34:38.537Z,6.07
2018-06-14T00:37:07.415Z,5.87
2018-06-14T00:39:36.533Z,5.83
2018-06-14T00:42:05.024Z,8.33
2018-06-14T00:44:33.799Z,4.57
2018-06-14T00:47:02.599Z,6.77
2018-06-14T00:49:31.136Z,6.40
2018-06-14T00:51:59.696Z,6.57
2018-06-14T00:54:28.143Z,3.97
2018-06-14T00:57:07.837Z,4.83
2018-06-14T00:59:36.447Z,7.57
2018-06-14T01:02:04.967Z,4.30
2018-06-14T01:04:33.451Z,4.10
2018-06-14T01:07:02.330Z,3.70
2018-06-14T01:09:31.029Z,4.80
2018-06-14T01:11:59.623Z,4.50
2018-06-14T01:14:28.111Z,8.93
2018-06-14T01:16:56.714Z,6.20
2018-06-14T01:19:25.299Z,5.73
2018-06-14T01:21:53.818Z,4.27
2018-06-14T01:24:22.492Z,5.57
2018-06-14T01:26:53.511Z,4.70
2018-06-14T01:29:22.189Z,6.50
2018-06-14T01:31:50.791Z,5.67
2018-06-14T01:34:19.690Z,3.90
2018-06-14T01:36:48.495Z,6.93
2018-06-14T01:39:17.154Z,9.03
2018-06-14T01:41:45.960Z,4.27
2018-06-14T01:44:14.372Z,4.13
2018-06-14T01:46:43.317Z,5.93
2018-06-14T01:49:11.851Z,8.50
2018-06-14T01:51:40.316Z,8.13
2018-06-14T01:54:08.851Z,6.03
2018-06-14T01:56:37.374Z,8.03
2018-06-14T01:59:05.916Z,7.57
2018-06-14T02:01:34.447Z,6.27
2018-06-14T02:04:03.236Z,5.87
2018-06-14T02:06:32.010Z,8.87
2018-06-14T02:09:00.953Z,5.93
2018-06-14T02:11:29.453Z,4.77
2018-06-14T02:13:57.948Z,5.07
2018-06-14T02:16:26.590Z,6.03
2018-06-14T02:18:55.280Z,4.87
2018-06-14T02:21:24.114Z,6.23
2018-06-14T02:23:52.674Z,6.73
2018-06-14T02:26:21.148Z,6.47
2018-06-14T02:28:49.632Z,5.37
2018-06-14T02:31:18.456Z,4.83
2018-06-14T02:33:47.282Z,6.03
2018-06-14T02:36:16.151Z,4.30
2018-06-14T02:38:44.727Z,4.43
2018-06-14T02:41:13.281Z,5.97
2018-06-14T02:43:41.876Z,4.20
2018-06-14T02:46:10.491Z,5.03
2018-06-14T02:48:38.980Z,6.90
2018-06-14T02:51:07.675Z,5.20
2018-06-14T02:53:36.187Z,4.23
2018-06-14T02:56:04.714Z,5.53
2018-06-14T02:58:33.248Z,8.70
2018-06-14T03:01:01.773Z,6.67
2018-06-14T03:03:30.276Z,6.43
2018-06-14T03:05:58.796Z,4.47
2018-06-14T03:08:27.351Z,4.93
2018-06-14T03:10:55.828Z,6.00
2018-06-14T03:13:24.450Z,7.40
2018-06-14T03:15:52.957Z,5.47
2018-06-14T03:18:21.801Z,5.27
2018-06-14T03:20:50.472Z,4.07
2018-06-14T03:23:18.937Z,5.07
2018-06-14T03:25:47.511Z,4.73
2018-06-14T03:28:16.365Z,5.70
2018-06-14T03:30:45.087Z,4.27
2018-06-14T03:33:13.656Z,3.70
2018-06-14T03:35:42.154Z,8.77
2018-06-14T03:38:10.680Z,6.80
2018-06-14T03:40:39.191Z,4.60
2018-06-14T03:43:07.925Z,6.13
2018-06-14T03:45:36.472Z,4.63
2018-06-14T03:48:05.012Z,4.90
2018-06-14T03:50:33.625Z,7.40
2018-06-14T03:53:02.371Z,4.53
2018-06-14T03:55:31.064Z,6.17
2018-06-14T03:57:59.798Z,6.07
2018-06-14T04:00:28.493Z,5.30
2018-06-14T04:02:57.296Z,4.00
2018-06-14T04:05:25.838Z,4.20
2018-06-14T04:07:54.584Z,4.93
2018-06-14T04:10:23.152Z,3.70
2018-06-14T04:12:51.627Z,5.67
2018-06-14T04:15:20.119Z,4.73
2018-06-14T04:17:53.081Z,5.77
2018-06-14T04:20:21.607Z,7.97
2018-06-14T04:22:50.050Z,6.10
2018-06-14T04:25:18.763Z,4.37
2018-06-14T04:27:47.285Z,6.27
2018-06-14T04:30:16.011Z,4.20
2018-06-14T04:32:44.568Z,4.30
2018-06-14T04:35:13.060Z,10.17
2018-06-14T04:37:48.020Z,4.50
2018-06-14T04:40:16.619Z,9.10
2018-06-14T04:42:45.313Z,5.93
2018-06-14T04:45:13.800Z,4.83
2018-06-14T04:47:42.343Z,7.50
2018-06-14T04:50:11.017Z,5.57
2018-06-14T04:52:39.561Z,5.13
2018-06-14T04:55:08.162Z,6.93
2018-06-14T04:57:36.692Z,5.40
2018-06-14T05:00:08.568Z,4.70
2018-06-14T05:02:37.247Z,7.03
2018-06-14T05:05:06.387Z,7.13
2018-06-14T05:07:34.896Z,4.97
2018-06-14T05:10:03.462Z,5.43
2018-06-14T05:12:31.959Z,4.63
2018-06-14T05:15:00.495Z,4.93
2018-06-14T05:17:29.392Z,3.90
2018-06-14T05:19:58.064Z,8.07
2018-06-14T05:22:26.602Z,4.20
2018-06-14T05:24:55.158Z,5.60
2018-06-14T05:27:23.676Z,6.97
2018-06-14T05:29:52.507Z,5.53
2018-06-14T05:32:21.060Z,6.40
2018-06-14T05:34:49.671Z,10.23
2018-06-14T05:37:18.476Z,5.50
2018-06-14T05:39:46.989Z,7.70
2018-06-14T05:42:15.538Z,6.93
2018-06-14T05:44:44.045Z,7.27
2018-06-14T05:47:12.995Z,6.43
2018-06-14T05:49:41.660Z,5.53
2018-06-14T05:52:10.180Z,4.20
2018-06-14T05:54:39.206Z,10.33
2018-06-14T05:57:07.775Z,5.37
2018-06-14T05:59:36.299Z,7.87
2018-06-14T06:02:04.834Z,7.87
2018-06-14T06:04:33.506Z,9.67
2018-06-14T06:07:02.101Z,7.53
2018-06-14T06:09:31.080Z,6.03
2018-06-14T06:11:59.583Z,5.23
2018-06-14T06:14:28.230Z,5.30
2018-06-14T06:16:56.725Z,7.20
2018-06-14T06:19:25.718Z,6.60
2018-06-14T06:21:54.590Z,6.13
2018-06-14T06:24:23.219Z,7.47
2018-06-14T06:26:51.759Z,6.30
2018-06-14T06:29:20.247Z,4.17
2018-06-14T06:31:49.001Z,6.50
2018-06-14T06:34:17.731Z,7.47
2018-06-14T06:36:46.573Z,4.17
2018-06-14T06:39:15.125Z,6.20
2018-06-14T06:41:43.745Z,7.13
2018-06-14T06:44:12.281Z,6.63
2018-06-14T06:46:40.831Z,6.37
2018-06-14T06:49:09.543Z,6.73
2018-06-14T06:51:38.430Z,3.50
2018-06-14T06:54:07.064Z,5.87
2018-06-14T06:56:35.866Z,5.57
2018-06-14T06:59:04.514Z,6.20
2018-06-14T07:01:33.286Z,7.67
2018-06-14T07:04:01.816Z,7.50
2018-06-14T07:06:30.481Z,6.13
2018-06-14T07:08:59.031Z,7.13
2018-06-14T07:11:27.615Z,10.30
2018-06-14T07:13:56.068Z,5.70
2018-06-14T07:16:24.961Z,5.90
2018-06-14T07:18:53.764Z,6.97
2018-06-14T07:21:22.648Z,4.67
2018-06-14T07:23:51.145Z,9.57
2018-06-14T07:26:19.673Z,3.53
2018-06-14T07:28:48.214Z,6.43
2018-06-14T07:31:16.836Z,3.43
2018-06-14T07:33:45.473Z,7.63
2018-06-14T07:36:14.288Z,5.33
2018-06-14T07:38:42.819Z,4.80
2018-06-14T07:41:11.442Z,5.87
2018-06-14T07:43:41.389Z,4.03
2018-06-14T07:46:09.959Z,5.40
2018-06-14T07:48:39.936Z,6.10
2018-06-14T07:51:08.781Z,4.23
2018-06-14T07:53:37.925Z,3.63
2018-06-14T07:56:06.790Z,4.63
2018-06-14T07:58:35.151Z,7.83
2018-06-14T08:01:03.813Z,4.57
2018-06-14T08:03:32.744Z,3.53
2018-06-14T08:06:01.406Z,4.87
2018-06-14T08:08:30.399Z,3.53
2018-06-14T08:10:58.980Z,3.77
2018-06-14T08:13:27.527Z,3.87
2018-06-14T08:15:56.207Z,3.80
2018-06-14T08:18:25.010Z,4.07
2018-06-14T08:20:53.603Z,2.53
2018-06-14T08:23:24.963Z,4.73
2018-06-14T08:25:53.446Z,5.73
2018-06-14T08:28:22.042Z,5.00
2018-06-14T08:30:50.332Z,2.97
2018-06-14T08:33:19.047Z,4.83
2018-06-14T08:35:47.568Z,3.80
2018-06-14T08:38:16.173Z,4.00
2018-06-14T08:40:44.992Z,5.63
2018-06-14T08:43:13.756Z,2.90
2018-06-14T08:45:42.499Z,4.30
2018-06-14T08:48:11.390Z,6.77
2018-06-14T08:50:39.900Z,4.07
2018-06-14T08:53:08.442Z,3.60
2018-06-14T08:55:37.037Z,3.40
2018-06-14T08:58:06.026Z,4.97
2018-06-14T09:00:34.932Z,4.63
2018-06-14T09:03:03.691Z,4.67
2018-06-14T09:05:32.262Z,3.50
2018-06-14T09:08:01.051Z,4.03
2018-06-14T09:10:29.881Z,5.47
2018-06-14T09:12:58.696Z,3.70
2018-06-14T09:15:27.241Z,4.67
2018-06-14T09:17:56.041Z,3.80
2018-06-14T09:20:24.566Z,3.23
2018-06-14T09:22:53.232Z,3.07
2018-06-14T09:25:22.061Z,5.00
2018-06-14T09:27:50.674Z,5.50
2018-06-14T09:30:21.460Z,2.97
2018-06-14T09:32:51.736Z,4.73
2018-06-14T09:35:21.490Z,3.05
2018-06-14T09:37:51.565Z,9.20
2018-06-14T09:40:21.409Z,4.40
2018-06-14T09:42:52.506Z,5.13
2018-06-14T09:45:21.367Z,4.00
2018-06-14T09:47:49.950Z,6.10
2018-06-14T09:50:18.451Z,2.90
2018-06-14T09:52:47.342Z,3.90
2018-06-14T09:55:16.687Z,3.00
2018-06-14T09:57:45.335Z,4.30
2018-06-14T10:00:14.056Z,3.47
2018-06-14T10:02:42.973Z,4.43
2018-06-14T10:05:11.885Z,2.77
2018-06-14T10:07:40.670Z,5.27
2018-06-14T10:10:09.230Z,3.77
2018-06-14T10:12:38.842Z,4.70
2018-06-14T10:15:07.545Z,5.07
2018-06-14T10:17:36.285Z,4.50
2018-06-14T10:20:05.043Z,4.83
2018-06-14T10:22:33.769Z,3.53
2018-06-14T10:25:02.452Z,3.80
2018-06-14T10:27:30.964Z,3.20
2018-06-14T10:29:59.543Z,4.00
2018-06-14T10:32:28.239Z,2.73
2018-06-14T10:34:57.133Z,3.60
2018-06-14T10:37:25.778Z,4.13
2018-06-14T10:39:54.150Z,4.40
2018-06-14T10:42:22.690Z,3.27
2018-06-14T10:44:51.416Z,4.80
2018-06-14T10:47:20.160Z,3.60
2018-06-14T10:49:48.901Z,4.60
2018-06-14T10:52:17.560Z,3.53
2018-06-14T10:54:46.048Z,4.17
2018-06-14T10:57:14.817Z,4.10
2018-06-14T10:59:43.283Z,7.55
2018-06-14T11:02:11.936Z,5.40
2018-06-14T11:04:40.411Z,6.15
2018-06-14T11:07:09.033Z,6.17
2018-06-14T11:09:37.546Z,5.07
2018-06-14T11:12:06.396Z,6.40
2018-06-14T11:14:34.927Z,4.87
2018-06-14T11:17:03.568Z,7.75
2018-06-14T11:19:32.206Z,6.83
2018-06-14T11:22:01.098Z,3.98
2018-06-14T11:24:29.707Z,6.45
2018-06-14T11:26:58.241Z,7.03
2018-06-14T11:29:26.783Z,3.47
2018-06-14T11:31:55.343Z,5.35
2018-06-14T11:34:24.130Z,5.67
2018-06-14T11:36:52.833Z,6.03
2018-06-14T11:39:21.366Z,5.67
2018-06-14T11:41:49.952Z,6.63
2018-06-14T11:44:18.669Z,5.77
2018-06-14T11:46:47.408Z,6.87
2018-06-14T11:49:15.935Z,6.57
2018-06-14T11:51:44.475Z,5.08
2018-06-14T11:54:13.196Z,5.83
2018-06-14T11:56:41.776Z,5.45
2018-06-14T11:59:10.403Z,4.22
2018-06-14T12:01:39.615Z,5.10
2018-06-14T12:04:08.382Z,3.77
2018-06-14T12:06:37.155Z,5.35
2018-06-14T12:09:07.670Z,5.00
2018-06-14T12:11:36.269Z,4.35
2018-06-14T12:14:04.883Z,5.42
2018-06-14T12:16:33.848Z,5.05
2018-06-14T12:19:02.499Z,5.00
2018-06-14T12:21:31.327Z,4.20
2018-06-14T12:23:59.902Z,4.65
2018-06-14T12:26:28.874Z,4.35
2018-06-14T12:28:57.474Z,3.60
2018-06-14T12:31:26.159Z,3.72
2018-06-14T12:33:54.910Z,4.42
2018-06-14T12:36:23.533Z,4.53
2018-06-14T12:38:52.464Z,3.87
2018-06-14T12:41:21.100Z,4.12
2018-06-14T12:43:49.603Z,3.60
2018-06-14T12:46:18.305Z,6.37
2018-06-14T12:48:47.241Z,4.35
2018-06-14T12:51:15.756Z,5.78
2018-06-14T12:53:44.281Z,5.45
2018-06-14T12:56:13.047Z,4.42
2018-06-14T12:58:41.936Z,5.58
2018-06-14T13:01:10.613Z,5.87
2018-06-14T13:03:39.604Z,4.12
2018-06-14T13:06:08.724Z,5.78
2018-06-14T13:08:37.284Z,4.90
2018-06-14T13:11:06.003Z,4.33
2018-06-14T13:13:34.600Z,5.45
2018-06-14T13:16:03.104Z,6.28
2018-06-14T13:18:32.021Z,6.33
2018-06-14T13:21:05.495Z,6.45
2018-06-14T13:23:34.037Z,6.60
2018-06-14T13:26:02.860Z,2.75
2018-06-14T13:28:31.415Z,3.90
2018-06-14T13:31:00.123Z,6.90
2018-06-14T13:33:29.248Z,6.03
2018-06-14T13:35:59.384Z,4.62
2018-06-14T13:38:27.902Z,4.37
2018-06-14T13:40:56.597Z,4.50
2018-06-14T13:43:25.142Z,3.85
2018-06-14T13:45:53.689Z,3.42
2018-06-14T13:48:22.625Z,4.47
2018-06-14T13:50:51.316Z,6.30
2018-06-14T13:53:19.949Z,5.37
2018-06-14T13:55:48.713Z,3.75
2018-06-14T13:58:17.276Z,4.35
2018-06-14T14:00:46.022Z,3.40
2018-06-14T14:03:14.477Z,5.72
2018-06-14T14:05:43.026Z,2.70
2018-06-14T14:08:11.589Z,2.72
2018-06-14T14:10:40.093Z,2.47
2018-06-14T14:13:08.719Z,4.40
2018-06-14T14:15:37.730Z,3.72
2018-06-14T14:18:06.408Z,3.70
2018-06-14T14:20:35.118Z,5.90
2018-06-14T14:23:03.721Z,3.87
2018-06-14T14:25:32.440Z,4.15
2018-06-14T14:28:01.085Z,3.50
2018-06-14T14:30:29.729Z,3.67
2018-06-14T14:32:58.361Z,4.65
2018-06-14T14:35:26.874Z,7.17
2018-06-14T14:37:55.517Z,2.92
2018-06-14T14:40:24.320Z,6.35
2018-06-14T14:42:52.923Z,4.00
2018-06-14T14:45:21.676Z,3.15
2018-06-14T14:47:50.215Z,3.93
2018-06-14T14:50:18.900Z,3.13
2018-06-14T14:52:47.725Z,4.83
2018-06-14T14:55:16.595Z,3.30
2018-06-14T14:57:45.559Z,5.93
2018-06-14T15:00:14.446Z,6.33
2018-06-14T15:02:43.313Z,3.50
2018-06-14T15:05:11.895Z,4.30
2018-06-14T15:07:40.473Z,3.08
2018-06-14T15:10:09.695Z,5.15
2018-06-14T15:12:38.252Z,3.83
2018-06-14T15:15:07.249Z,5.12
2018-06-14T15:17:36.026Z,4.80
2018-06-14T15:20:04.834Z,5.15
2018-06-14T15:22:33.023Z,4.47
2018-06-14T15:25:01.708Z,2.42
2018-06-14T15:27:30.672Z,3.37
2018-06-14T15:29:59.325Z,3.95
2018-06-14T15:32:27.904Z,5.27
2018-06-14T15:34:56.498Z,3.53
2018-06-14T15:37:25.137Z,5.73
2018-06-14T15:39:53.828Z,3.23
2018-06-14T15:42:22.371Z,5.33
2018-06-14T15:44:51.468Z,4.83
2018-06-14T15:47:20.214Z,6.57
2018-06-14T15:49:49.231Z,3.83
2018-06-14T15:52:17.861Z,5.27
2018-06-14T15:54:56.700Z,5.33
2018-06-14T15:57:25.273Z,4.30
2018-06-14T15:59:54.069Z,2.73
2018-06-14T16:02:23.152Z,4.93
2018-06-14T16:04:52.355Z,4.43
2018-06-14T16:07:21.247Z,4.23
2018-06-14T16:09:49.956Z,2.83
2018-06-14T16:12:18.779Z,4.70
2018-06-14T16:14:47.941Z,4.07
2018-06-14T16:17:16.557Z,4.27
2018-06-14T16:19:45.490Z,4.37
2018-06-14T16:22:14.063Z,3.87
2018-06-14T16:24:42.677Z,4.13
2018-06-14T16:27:11.316Z,5.00
2018-06-14T16:29:39.958Z,8.77
2018-06-14T16:32:08.931Z,2.43
2018-06-14T16:34:38.046Z,4.07
2018-06-14T16:37:07.140Z,4.70
2018-06-14T16:39:35.671Z,4.77
2018-06-14T16:42:03.897Z,5.07
2018-06-14T16:44:33.121Z,3.13
2018-06-14T16:47:01.996Z,4.47
2018-06-14T16:49:30.794Z,6.10
2018-06-14T16:51:59.430Z,4.43
2018-06-14T16:54:28.237Z,6.47
2018-06-14T16:56:56.930Z,7.80
2018-06-14T16:59:25.625Z,6.50
2018-06-14T17:01:54.161Z,8.17
2018-06-14T17:04:23.096Z,4.87
2018-06-14T17:06:52.077Z,5.30
2018-06-14T17:09:20.818Z,3.10
2018-06-14T17:11:49.545Z,5.70
2018-06-14T17:14:18.360Z,4.37
2018-06-14T17:16:47.176Z,4.30
2018-06-14T17:19:15.910Z,7.40
2018-06-14T17:21:44.644Z,7.13
2018-06-14T17:24:13.550Z,6.30
2018-06-14T17:26:42.946Z,5.63
2018-06-14T17:29:11.227Z,7.40
2018-06-14T17:31:40.160Z,6.87
2018-06-14T17:34:08.877Z,4.83
2018-06-14T17:36:37.634Z,6.83
2018-06-14T17:39:07.367Z,7.00
2018-06-14T17:41:36.749Z,7.60
2018-06-14T17:44:05.304Z,9.97
2018-06-14T17:46:34.042Z,7.53
2018-06-14T17:49:02.870Z,8.77
2018-06-14T17:51:31.684Z,11.57
2018-06-14T17:54:00.537Z,10.30
2018-06-14T17:56:29.217Z,8.70
2018-06-14T17:58:57.972Z,10.43
2018-06-14T18:01:27.093Z,8.43
2018-06-14T18:03:55.845Z,13.20
2018-06-14T18:06:25.485Z,9.50
2018-06-14T18:08:54.320Z,12.07
2018-06-14T18:11:23.627Z,10.00
2018-06-14T18:13:52.618Z,11.27
2018-06-14T18:16:21.248Z,12.73
2018-06-14T18:18:49.958Z,12.60
2018-06-14T18:21:18.678Z,9.90
2018-06-14T18:23:47.922Z,13.93
2018-06-14T18:26:16.665Z,15.87
2018-06-14T18:28:45.450Z,14.90
2018-06-14T18:31:14.313Z,15.23
2018-06-14T18:33:43.507Z,15.80
2018-06-14T18:36:12.055Z,12.83
2018-06-14T18:38:40.883Z,19.43
2018-06-14T18:41:09.833Z,15.97
2018-06-14T18:43:38.756Z,15.23
2018-06-14T18:46:07.575Z,21.77
2018-06-14T18:48:36.236Z,19.50
2018-06-14T18:51:05.058Z,17.60
2018-06-14T18:53:33.696Z,16.07
2018-06-14T18:56:02.532Z,17.23
2018-06-14T18:58:31.309Z,19.67
2018-06-14T19:01:00.314Z,17.10
2018-06-14T19:03:29.263Z,18.83
2018-06-14T19:05:57.695Z,17.23
2018-06-14T19:08:26.849Z,15.97
2018-06-14T19:10:55.566Z,17.77
2018-06-14T19:13:24.384Z,17.60
2018-06-14T19:15:53.237Z,19.83
2018-06-14T19:18:22.127Z,19.83
2018-06-14T19:20:51.276Z,14.33
2018-06-14T19:23:20.122Z,17.53
2018-06-14T19:25:49.212Z,14.73
2018-06-14T19:28:18.875Z,14.97
2018-06-14T19:30:48.584Z,13.77
2018-06-14T19:33:17.912Z,19.50
2018-06-14T19:35:46.942Z,13.83
2018-06-14T19:38:16.231Z,17.63
2018-06-14T19:40:44.811Z,15.73
2018-06-14T19:43:13.636Z,16.27
2018-06-14T19:45:42.668Z,14.00
2018-06-14T19:48:11.491Z,15.63
2018-06-14T19:50:40.891Z,12.30
2018-06-14T19:53:09.816Z,17.23
2018-06-14T19:55:38.752Z,13.53
2018-06-14T19:58:07.336Z,14.60
2018-06-14T20:00:36.259Z,16.67
2018-06-14T20:03:05.235Z,13.63
2018-06-14T20:05:33.981Z,16.77
2018-06-14T20:08:02.610Z,18.57
2018-06-14T20:10:31.412Z,16.53
2018-06-14T20:13:00.234Z,17.17
2018-06-14T20:15:28.424Z,18.57
2018-06-14T20:17:57.157Z,17.87
2018-06-14T20:20:25.886Z,17.93
2018-06-14T20:22:54.277Z,17.33
2018-06-14T20:25:23.543Z,17.87
2018-06-14T20:27:52.829Z,21.07
2018-06-14T20:30:21.644Z,17.70
2018-06-14T20:32:50.060Z,20.17
2018-06-14T20:35:18.598Z,17.90
2018-06-14T20:37:47.378Z,18.27
2018-06-14T20:40:16.095Z,17.70
2018-06-14T20:42:44.950Z,16.63
2018-06-14T20:45:13.684Z,16.47
2018-06-14T20:47:42.402Z,15.60
2018-06-14T20:50:11.448Z,14.73
2018-06-14T20:52:40.118Z,17.43
2018-06-14T20:55:09.331Z,15.23
2018-06-14T20:57:38.245Z,17.83
2018-06-14T21:00:06.835Z,18.47
2018-06-14T21:02:35.755Z,15.80
2018-06-14T21:05:04.469Z,13.90
2018-06-14T21:07:33.145Z,15.10
2018-06-14T21:10:01.910Z,13.90
2018-06-14T21:12:30.949Z,17.43
2018-06-14T21:14:59.505Z,15.60
2018-06-14T21:17:28.283Z,14.63
2018-06-14T21:19:57.097Z,15.73
2018-06-14T21:22:25.707Z,21.17
2018-06-14T21:24:54.718Z,17.13
2018-06-14T21:27:23.558Z,18.63
2018-06-14T21:29:52.361Z,17.63
2018-06-14T21:32:21.088Z,15.20
2018-06-14T21:34:49.697Z,15.03
2018-06-14T21:37:18.250Z,17.63
2018-06-14T21:39:46.772Z,23.13
2018-06-14T21:42:15.436Z,24.97
2018-06-14T21:44:44.000Z,19.30
2018-06-14T21:47:12.568Z,19.93
2018-06-14T21:49:41.482Z,19.27
2018-06-14T21:52:10.100Z,15.93
2018-06-14T21:54:38.931Z,18.77
2018-06-14T21:57:07.456Z,23.07
2018-06-14T21:59:36.487Z,24.70
2018-06-14T22:02:05.042Z,18.20
2018-06-14T22:04:33.835Z,15.90
2018-06-14T22:07:02.468Z,18.53
2018-06-14T22:09:31.467Z,20.07
2018-06-14T22:12:00.101Z,17.53
2018-06-14T22:14:28.651Z,19.33
2018-06-14T22:16:57.252Z,15.87
2018-06-14T22:19:25.973Z,21.30
2018-06-14T22:21:54.739Z,17.97
2018-06-14T22:24:23.435Z,16.30
2018-06-14T22:26:51.848Z,14.20
2018-06-14T22:29:20.431Z,17.70
2018-06-14T22:31:49.410Z,14.33
2018-06-14T22:34:29.028Z,18.40
2018-06-14T22:36:58.012Z,16.20
2018-06-14T22:39:26.570Z,14.37
2018-06-14T22:41:55.129Z,14.80
2018-06-14T22:44:23.773Z,18.07
2018-06-14T22:46:52.307Z,18.50
2018-06-14T22:49:20.827Z,17.00
2018-06-14T22:52:00.537Z,18.50
2018-06-14T22:54:29.126Z,16.73
2018-06-14T22:56:57.627Z,17.87
2018-06-14T22:59:26.751Z,15.90
2018-06-14T23:01:55.315Z,15.13
2018-06-14T23:04:26.368Z,18.63
2018-06-14T23:06:55.080Z,18.57
2018-06-14T23:10:34.628Z,15.27
2018-06-14T23:13:03.731Z,17.87
2018-06-14T23:15:32.253Z,17.50
2018-06-14T23:18:01.195Z,18.43
2018-06-14T23:20:31.005Z,13.80
2018-06-14T23:23:00.277Z,12.77
2018-06-14T23:25:29.266Z,15.90
2018-06-14T23:27:58.099Z,14.73
2018-06-14T23:30:26.749Z,13.87
2018-06-14T23:32:55.286Z,12.70
2018-06-14T23:35:24.089Z,12.50
2018-06-14T23:37:52.834Z,15.00
2018-06-14T23:40:21.614Z,13.33
2018-06-14T23:42:50.322Z,11.93
2018-06-14T23:45:18.851Z,13.87
2018-06-14T23:47:47.550Z,13.63
2018-06-14T23:50:16.223Z,11.80
2018-06-14T23:52:44.795Z,11.10
2018-06-14T23:55:13.300Z,13.97
2018-06-14T23:57:41.823Z,11.53
